createdAt,value
2023-05-21T00:02:23.783Z,27.23
2023-05-21T00:04:51.443Z,26.95
2023-05-21T00:07:18.707Z,25.58
2023-05-21T00:09:45.191Z,25.10
2023-05-21T00:12:11.692Z,25.00
2023-05-21T00:14:38.228Z,29.00
2023-05-21T00:17:04.935Z,21.25
2023-05-21T00:19:33.713Z,26.75
2023-05-21T00:22:03.615Z,25.80
2023-05-21T00:24:30.319Z,23.88
2023-05-21T00:26:56.846Z,25.67
2023-05-21T00:29:23.748Z,26.00
2023-05-21T00:31:51.178Z,21.48
2023-05-21T00:34:18.011Z,29.52
2023-05-21T00:36:48.023Z,25.77
2023-05-21T00:39:14.632Z,21.27
2023-05-21T00:41:43.033Z,25.20
2023-05-21T00:44:09.823Z,23.65
2023-05-21T00:46:36.619Z,22.23
2023-05-21T00:49:03.177Z,23.20
2023-05-21T00:51:30.334Z,28.35
2023-05-21T00:53:57.864Z,20.52
2023-05-21T00:56:25.154Z,26.70
2023-05-21T00:58:52.056Z,24.30
2023-05-21T01:01:19.450Z,27.58
2023-05-21T01:03:48.737Z,26.48
2023-05-21T01:07:24.198Z,26.20
2023-05-21T01:09:50.919Z,32.97
2023-05-21T01:12:18.821Z,25.63
2023-05-21T01:14:45.826Z,28.27
2023-05-21T01:17:14.333Z,23.83
2023-05-21T01:19:42.688Z,27.25
2023-05-21T01:22:12.437Z,23.63
2023-05-21T01:24:38.991Z,22.77
2023-05-21T01:27:07.656Z,26.20
2023-05-21T01:29:34.324Z,23.52
2023-05-21T01:32:26.947Z,23.35
2023-05-21T01:35:09.831Z,24.35
2023-05-21T01:37:47.640Z,27.33
2023-05-21T01:40:16.244Z,24.92
2023-05-21T01:42:44.433Z,27.52
2023-05-21T01:45:12.114Z,31.75
2023-05-21T01:47:40.688Z,29.15
2023-05-21T01:50:09.089Z,23.27
2023-05-21T01:52:36.346Z,28.10
2023-05-21T01:55:03.614Z,26.55
2023-05-21T01:57:30.157Z,25.77
2023-05-21T01:59:57.933Z,26.02
2023-05-21T02:02:24.652Z,36.00
2023-05-21T02:04:51.558Z,28.00
2023-05-21T02:07:18.380Z,33.35
2023-05-21T02:09:45.061Z,33.80
2023-05-21T02:12:11.816Z,24.05
2023-05-21T02:14:38.835Z,33.20
2023-05-21T02:17:05.693Z,27.15
2023-05-21T02:19:32.229Z,28.52
2023-05-21T02:21:58.810Z,30.25
2023-05-21T02:24:25.333Z,29.75
2023-05-21T02:26:52.477Z,29.98
2023-05-21T02:29:19.311Z,32.55
2023-05-21T02:31:45.994Z,33.47
2023-05-21T02:34:12.791Z,28.38
2023-05-21T02:36:41.643Z,27.77
2023-05-21T02:39:08.157Z,24.38
2023-05-21T02:41:34.812Z,31.45
2023-05-21T02:44:01.397Z,30.77
2023-05-21T02:46:27.890Z,29.17
2023-05-21T02:48:54.494Z,31.40
2023-05-21T02:51:21.078Z,38.35
2023-05-21T02:53:48.195Z,31.58
2023-05-21T02:56:15.045Z,30.42
2023-05-21T02:58:41.949Z,31.40
2023-05-21T03:01:08.474Z,35.95
2023-05-21T03:03:35.190Z,33.97
2023-05-21T03:06:02.060Z,37.15
2023-05-21T03:08:28.557Z,33.83
2023-05-21T03:10:55.401Z,37.60
2023-05-21T03:13:22.239Z,37.13
2023-05-21T03:15:48.870Z,35.00
2023-05-21T03:18:15.460Z,32.88
2023-05-21T03:20:44.381Z,38.08
2023-05-21T03:23:14.217Z,42.60
2023-05-21T03:25:42.862Z,33.70
2023-05-21T03:28:11.915Z,40.63
2023-05-21T03:30:38.418Z,38.67
2023-05-21T03:33:05.110Z,39.35
2023-05-21T03:35:31.678Z,37.45
2023-05-21T03:37:58.173Z,37.28
2023-05-21T03:40:24.728Z,39.60
2023-05-21T03:42:51.516Z,39.33
2023-05-21T03:45:18.123Z,34.42
2023-05-21T03:47:44.672Z,36.35
2023-05-21T03:50:11.374Z,42.72
2023-05-21T03:52:37.923Z,38.85
2023-05-21T03:55:04.692Z,40.60
2023-05-21T03:57:31.261Z,42.72
2023-05-21T03:59:58.977Z,36.70
2023-05-21T04:02:27.294Z,36.55
2023-05-21T04:04:55.945Z,38.30
2023-05-21T04:07:22.748Z,36.17
2023-05-21T04:09:49.552Z,38.25
2023-05-21T04:12:18.058Z,37.22
2023-05-21T04:14:44.648Z,34.03
2023-05-21T04:17:12.711Z,32.60
2023-05-21T04:19:39.807Z,36.10
2023-05-21T04:22:06.491Z,35.85
2023-05-21T04:24:32.978Z,35.55
2023-05-21T04:27:01.597Z,39.17
2023-05-21T04:29:29.901Z,36.50
2023-05-21T04:31:56.389Z,36.60
2023-05-21T04:34:22.950Z,37.70
2023-05-21T04:36:49.850Z,39.20
2023-05-21T04:39:17.083Z,42.15
2023-05-21T04:41:44.331Z,35.92
2023-05-21T04:44:14.863Z,35.25
2023-05-21T04:46:41.895Z,34.67
2023-05-21T04:49:10.279Z,34.90
2023-05-21T04:51:37.864Z,33.42
2023-05-21T04:54:04.467Z,35.40
2023-05-21T04:56:31.968Z,34.47
2023-05-21T04:58:58.992Z,33.38
2023-05-21T05:01:27.330Z,33.85
2023-05-21T05:03:54.105Z,32.17
2023-05-21T05:06:21.510Z,41.00
2023-05-21T05:08:48.095Z,38.47
2023-05-21T05:11:14.680Z,37.53
2023-05-21T05:13:44.310Z,40.35
2023-05-21T05:16:12.874Z,34.97
2023-05-21T05:18:39.384Z,32.30
2023-05-21T05:21:06.239Z,38.70
2023-05-21T05:23:32.734Z,32.92
2023-05-21T05:25:59.258Z,42.80
2023-05-21T05:28:26.009Z,40.05
2023-05-21T05:30:52.691Z,37.80
2023-05-21T05:33:19.271Z,34.35
2023-05-21T05:35:45.784Z,31.35
2023-05-21T05:38:13.511Z,33.72
2023-05-21T05:40:40.095Z,36.03
2023-05-21T05:43:06.693Z,38.40
2023-05-21T05:45:33.253Z,35.92
2023-05-21T05:47:59.876Z,34.13
2023-05-21T05:50:27.341Z,36.15
2023-05-21T05:52:54.031Z,37.05
2023-05-21T05:55:22.001Z,38.22
2023-05-21T05:57:48.773Z,31.05
2023-05-21T06:00:15.751Z,31.70
2023-05-21T06:02:42.350Z,34.65
2023-05-21T06:05:10.008Z,32.65
2023-05-21T06:07:38.596Z,31.77
2023-05-21T06:10:09.054Z,28.48
2023-05-21T06:12:35.687Z,29.25
2023-05-21T06:15:02.231Z,28.88
2023-05-21T06:17:28.837Z,31.70
2023-05-21T06:19:55.614Z,33.30
2023-05-21T06:22:24.843Z,27.10
2023-05-21T06:24:52.035Z,30.48
2023-05-21T06:27:18.517Z,30.38
2023-05-21T06:29:45.110Z,27.15
2023-05-21T06:32:11.598Z,31.55
2023-05-21T06:34:38.102Z,35.67
2023-05-21T06:37:04.751Z,35.05
2023-05-21T06:39:31.411Z,29.65
2023-05-21T06:41:58.070Z,28.77
2023-05-21T06:44:24.599Z,25.35
2023-05-21T06:46:51.186Z,30.13
2023-05-21T06:49:17.641Z,29.40
2023-05-21T06:51:44.129Z,27.48
2023-05-21T06:54:10.889Z,30.23
2023-05-21T06:56:37.321Z,29.08
2023-05-21T06:59:03.842Z,25.83
2023-05-21T07:01:30.810Z,25.73
2023-05-21T07:03:57.424Z,30.27
2023-05-21T07:06:23.957Z,26.75
2023-05-21T07:08:50.497Z,27.73
2023-05-21T07:11:17.058Z,23.83
2023-05-21T07:13:43.516Z,27.55
2023-05-21T07:16:10.145Z,23.50
2023-05-21T07:18:37.591Z,24.02
2023-05-21T07:21:04.357Z,25.08
2023-05-21T07:23:30.856Z,21.55
2023-05-21T07:25:57.328Z,21.30
2023-05-21T07:28:23.852Z,19.73
2023-05-21T07:30:50.471Z,21.85
2023-05-21T07:33:17.265Z,24.33
2023-05-21T07:35:43.734Z,23.77
2023-05-21T07:38:10.245Z,22.35
2023-05-21T07:40:36.837Z,25.55
2023-05-21T07:43:03.321Z,17.45
2023-05-21T07:45:29.903Z,19.58
2023-05-21T07:47:56.473Z,17.80
2023-05-21T07:50:23.159Z,21.40
2023-05-21T07:52:49.760Z,18.63
2023-05-21T07:55:16.238Z,15.18
2023-05-21T07:57:42.770Z,18.02
2023-05-21T08:00:10.326Z,19.42
2023-05-21T08:02:37.149Z,16.35
2023-05-21T08:05:04.002Z,16.60
2023-05-21T08:07:31.912Z,20.77
2023-05-21T08:09:58.836Z,16.75
2023-05-21T08:12:25.415Z,18.77
2023-05-21T08:14:51.900Z,18.25
2023-05-21T08:17:18.596Z,18.95
2023-05-21T08:19:45.146Z,17.15
2023-05-21T08:22:11.648Z,20.40
2023-05-21T08:24:38.161Z,20.73
2023-05-21T08:27:05.198Z,13.50
2023-05-21T08:29:33.103Z,21.67
2023-05-21T08:31:59.775Z,20.48
2023-05-21T08:34:26.602Z,18.52
2023-05-21T08:36:53.857Z,15.88
2023-05-21T08:39:20.778Z,14.90
2023-05-21T08:41:51.915Z,18.92
2023-05-21T08:44:21.882Z,18.60
2023-05-21T08:46:51.669Z,16.13
2023-05-21T08:49:23.771Z,15.75
2023-05-21T08:51:53.403Z,17.63
2023-05-21T08:54:19.928Z,25.10
2023-05-21T08:56:49.299Z,17.42
2023-05-21T08:59:17.149Z,18.42
2023-05-21T09:01:45.996Z,14.70
2023-05-21T09:04:20.966Z,15.25
2023-05-21T09:06:48.501Z,12.80
2023-05-21T09:09:24.897Z,16.10
2023-05-21T09:11:51.487Z,11.40
2023-05-21T09:14:20.151Z,16.15
2023-05-21T09:16:48.704Z,16.42
2023-05-21T09:19:15.453Z,14.35
2023-05-21T09:21:42.049Z,14.43
2023-05-21T09:24:10.920Z,11.20
2023-05-21T09:26:37.589Z,18.60
2023-05-21T09:29:04.053Z,17.05
2023-05-21T09:31:30.714Z,12.68
2023-05-21T09:33:57.228Z,11.98
2023-05-21T09:36:24.176Z,12.73
2023-05-21T09:38:54.354Z,9.07
2023-05-21T09:41:30.934Z,15.32
2023-05-21T09:44:01.645Z,10.90
2023-05-21T09:46:28.147Z,15.10
2023-05-21T09:48:54.648Z,12.18
2023-05-21T09:51:21.515Z,11.55
2023-05-21T09:53:55.653Z,16.42
2023-05-21T09:56:24.589Z,12.57
2023-05-21T09:59:01.996Z,16.33
2023-05-21T10:01:31.479Z,14.13
2023-05-21T10:04:00.241Z,16.35
2023-05-21T10:06:29.315Z,13.77
2023-05-21T10:08:57.446Z,8.70
2023-05-21T10:11:27.229Z,14.95
2023-05-21T10:14:16.312Z,13.07
2023-05-21T10:16:44.324Z,18.40
2023-05-21T10:19:12.165Z,13.00
2023-05-21T10:21:39.941Z,16.02
2023-05-21T10:24:08.561Z,7.10
2023-05-21T10:26:36.248Z,14.57
2023-05-21T10:29:03.199Z,7.18
2023-05-21T10:31:29.741Z,14.85
2023-05-21T10:33:56.697Z,6.97
2023-05-21T10:36:31.672Z,13.27
2023-05-21T10:39:00.185Z,11.50
2023-05-21T10:41:30.209Z,8.68
2023-05-21T10:44:11.118Z,8.13
2023-05-21T10:46:53.139Z,10.73
2023-05-21T10:49:37.443Z,39.75
2023-05-21T10:52:04.092Z,18.63
2023-05-21T10:55:15.754Z,10.43
2023-05-21T11:00:20.520Z,13.90
2023-05-21T11:02:48.870Z,12.05
2023-05-21T11:05:15.616Z,6.93
2023-05-21T11:07:59.082Z,14.60
2023-05-21T11:10:41.308Z,14.32
2023-05-21T11:13:13.111Z,7.50
2023-05-21T11:15:57.725Z,10.85
2023-05-21T11:18:37.802Z,8.20
2023-05-21T11:21:10.503Z,16.17
2023-05-21T11:23:56.750Z,13.30
2023-05-21T11:26:26.235Z,14.65
2023-05-21T11:29:04.773Z,8.75
2023-05-21T11:31:41.536Z,7.93
2023-05-21T11:34:11.025Z,9.63
2023-05-21T11:36:38.578Z,8.05
2023-05-21T11:39:15.276Z,8.75
2023-05-21T11:42:00.462Z,8.43
2023-05-21T11:44:39.895Z,10.82
2023-05-21T11:47:07.873Z,7.05
2023-05-21T11:49:35.281Z,11.82
2023-05-21T11:52:03.170Z,10.93
2023-05-21T11:54:34.069Z,7.97
2023-05-21T11:57:03.765Z,8.90
2023-05-21T11:59:30.262Z,11.30
2023-05-21T12:01:56.946Z,11.18
2023-05-21T12:04:23.488Z,7.97
2023-05-21T12:06:50.788Z,6.28
2023-05-21T12:09:17.463Z,14.73
2023-05-21T12:11:44.113Z,9.98
2023-05-21T12:14:11.375Z,12.98
2023-05-21T12:16:39.141Z,11.40
2023-05-21T12:19:06.681Z,10.18
2023-05-21T12:21:34.176Z,12.15
2023-05-21T12:24:00.912Z,11.85
2023-05-21T12:26:27.790Z,13.35
2023-05-21T12:28:57.564Z,10.75
2023-05-21T12:31:24.668Z,14.68
2023-05-21T12:33:51.888Z,7.63
2023-05-21T12:36:34.309Z,7.63
2023-05-21T12:39:00.836Z,12.20
2023-05-21T12:41:27.971Z,7.97
2023-05-21T12:43:54.502Z,9.38
2023-05-21T12:46:23.242Z,9.45
2023-05-21T12:48:53.144Z,9.75
2023-05-21T12:51:20.380Z,8.98
2023-05-21T12:53:47.375Z,11.30
2023-05-21T12:56:15.810Z,9.13
2023-05-21T12:58:42.932Z,9.25
2023-05-21T13:01:10.960Z,10.95
2023-05-21T13:03:38.905Z,14.65
2023-05-21T13:06:09.220Z,10.73
2023-05-21T13:08:35.735Z,8.07
2023-05-21T13:11:03.064Z,9.95
2023-05-21T13:13:30.192Z,9.48
2023-05-21T13:15:56.895Z,17.95
2023-05-21T13:18:23.498Z,14.38
2023-05-21T13:20:51.648Z,16.23
2023-05-21T13:23:18.203Z,18.15
2023-05-21T13:25:44.810Z,12.75
2023-05-21T13:28:15.077Z,11.43
2023-05-21T13:30:41.673Z,6.05
2023-05-21T13:33:08.340Z,7.45
2023-05-21T13:35:35.281Z,11.57
2023-05-21T13:38:02.087Z,8.55
2023-05-21T13:40:28.681Z,10.27
2023-05-21T13:42:55.242Z,12.48
2023-05-21T13:45:21.866Z,10.55
2023-05-21T13:47:48.883Z,10.90
2023-05-21T13:50:16.143Z,12.18
2023-05-21T13:52:42.782Z,19.27
2023-05-21T13:55:10.005Z,12.90
2023-05-21T13:57:36.581Z,9.70
2023-05-21T14:00:04.099Z,7.95
2023-05-21T14:02:30.747Z,13.90
2023-05-21T14:04:57.456Z,10.55
2023-05-21T14:07:24.008Z,10.63
2023-05-21T14:09:50.573Z,14.88
2023-05-21T14:12:17.178Z,10.60
2023-05-21T14:14:43.787Z,16.17
2023-05-21T14:17:10.316Z,6.72
2023-05-21T14:19:36.858Z,10.18
2023-05-21T14:22:03.580Z,10.30
2023-05-21T14:24:30.060Z,14.18
2023-05-21T14:26:56.924Z,9.13
2023-05-21T14:29:23.596Z,17.92
2023-05-21T14:31:50.203Z,13.93
2023-05-21T14:34:17.628Z,12.73
2023-05-21T14:36:44.162Z,11.77
2023-05-21T14:39:10.649Z,10.35
2023-05-21T14:41:39.239Z,9.88
2023-05-21T14:44:05.734Z,10.13
2023-05-21T14:46:32.550Z,8.55
2023-05-21T14:49:00.206Z,11.77
2023-05-21T14:51:26.737Z,10.48
2023-05-21T14:53:53.231Z,12.15
2023-05-21T14:56:22.135Z,11.63
2023-05-21T14:58:48.948Z,9.73
2023-05-21T15:01:15.579Z,9.90
2023-05-21T15:03:42.195Z,13.23
2023-05-21T15:06:08.938Z,8.13
2023-05-21T15:08:35.790Z,7.50
2023-05-21T15:11:02.304Z,15.63
2023-05-21T15:13:28.847Z,9.95
2023-05-21T15:15:55.483Z,8.27
2023-05-21T15:18:22.064Z,11.07
2023-05-21T15:20:48.598Z,15.43
2023-05-21T15:23:17.186Z,11.20
2023-05-21T15:25:44.997Z,7.28
2023-05-21T15:28:12.125Z,16.88
2023-05-21T15:30:38.947Z,12.25
2023-05-21T15:33:05.507Z,9.00
2023-05-21T15:35:32.089Z,22.77
2023-05-21T15:37:58.638Z,12.60
2023-05-21T15:40:27.058Z,14.05
2023-05-21T15:42:54.097Z,10.63
2023-05-21T15:45:20.673Z,13.65
2023-05-21T15:47:47.489Z,7.47
2023-05-21T15:50:14.068Z,7.53
2023-05-21T15:52:41.502Z,9.77
2023-05-21T15:55:08.440Z,18.55
2023-05-21T15:57:34.920Z,7.38
2023-05-21T16:00:01.442Z,11.13
2023-05-21T16:02:28.040Z,9.48
2023-05-21T16:04:55.000Z,11.93
2023-05-21T16:07:23.294Z,10.23
2023-05-21T16:09:49.888Z,7.75
2023-05-21T16:12:16.498Z,14.30
2023-05-21T16:14:43.063Z,12.88
2023-05-21T16:17:09.788Z,7.63
2023-05-21T16:19:36.539Z,8.93
2023-05-21T16:22:03.282Z,18.35
2023-05-21T16:24:29.881Z,16.88
2023-05-21T16:26:56.440Z,10.43
2023-05-21T16:29:22.890Z,16.23
2023-05-21T16:31:49.433Z,9.18
2023-05-21T16:34:16.016Z,10.65
2023-05-21T16:36:42.593Z,9.70
2023-05-21T16:39:09.136Z,9.20
2023-05-21T16:41:35.898Z,11.25
2023-05-21T16:44:02.419Z,11.75
2023-05-21T16:46:28.997Z,9.93
2023-05-21T16:48:55.563Z,9.82
2023-05-21T16:51:22.280Z,9.75
2023-05-21T16:53:48.849Z,10.98
2023-05-21T16:56:15.491Z,9.65
2023-05-21T16:58:41.956Z,13.05
2023-05-21T17:01:08.542Z,15.30
2023-05-21T17:03:35.415Z,8.90
2023-05-21T17:06:01.986Z,12.32
2023-05-21T17:08:28.583Z,13.38
2023-05-21T17:10:55.730Z,12.38
2023-05-21T17:13:23.224Z,8.95
2023-05-21T17:15:52.802Z,13.00
2023-05-21T17:18:19.399Z,11.20
2023-05-21T17:20:46.019Z,8.07
2023-05-21T17:23:12.620Z,8.82
2023-05-21T17:25:39.858Z,8.43
2023-05-21T17:28:07.080Z,8.90
2023-05-21T17:30:33.818Z,8.68
2023-05-21T17:33:02.245Z,12.45
2023-05-21T17:35:29.191Z,10.95
2023-05-21T17:37:55.779Z,13.25
2023-05-21T17:40:24.403Z,10.88
2023-05-21T17:42:52.218Z,5.65
2023-05-21T17:45:19.023Z,9.50
2023-05-21T17:47:45.892Z,10.35
2023-05-21T17:50:12.557Z,11.05
2023-05-21T17:52:39.038Z,8.30
2023-05-21T17:55:06.241Z,7.13
2023-05-21T17:57:32.783Z,6.10
2023-05-21T17:59:59.333Z,28.23
2023-05-21T18:02:27.375Z,7.00
2023-05-21T18:04:54.078Z,11.85
2023-05-21T18:07:22.189Z,9.50
2023-05-21T18:09:48.716Z,4.75
2023-05-21T18:12:15.451Z,9.43
2023-05-21T18:14:41.939Z,12.68
2023-05-21T18:17:08.559Z,14.35
2023-05-21T18:19:35.092Z,9.50
2023-05-21T18:22:01.604Z,14.98
2023-05-21T18:24:28.108Z,9.90
2023-05-21T18:26:54.620Z,7.68
2023-05-21T18:29:21.097Z,8.35
2023-05-21T18:31:47.605Z,7.75
2023-05-21T18:34:15.520Z,10.82
2023-05-21T18:36:42.214Z,7.05
2023-05-21T18:39:09.406Z,9.68
2023-05-21T18:41:37.202Z,9.18
2023-05-21T18:44:04.107Z,6.78
2023-05-21T18:46:31.605Z,8.93
2023-05-21T18:48:59.821Z,9.55
2023-05-21T18:51:26.486Z,6.30
2023-05-21T18:53:53.015Z,10.85
2023-05-21T18:56:19.544Z,11.30
2023-05-21T18:58:46.265Z,10.18
2023-05-21T19:01:13.006Z,27.27
2023-05-21T19:03:39.565Z,10.00
2023-05-21T19:06:06.109Z,10.57
2023-05-21T19:08:32.591Z,9.05
2023-05-21T19:10:59.129Z,6.25
2023-05-21T19:13:26.330Z,8.60
2023-05-21T19:15:52.919Z,10.18
2023-05-21T19:18:19.659Z,15.23
2023-05-21T19:20:46.209Z,10.07
2023-05-21T19:23:12.763Z,6.22
2023-05-21T19:25:39.361Z,13.50
2023-05-21T19:28:05.946Z,8.02
2023-05-21T19:30:35.012Z,6.18
2023-05-21T19:33:02.036Z,11.25
2023-05-21T19:35:28.728Z,7.22
2023-05-21T19:37:59.074Z,6.20
2023-05-21T19:40:26.637Z,9.02
2023-05-21T19:42:53.183Z,7.82
2023-05-21T19:45:21.411Z,9.30
2023-05-21T19:47:48.535Z,9.60
2023-05-21T19:50:15.095Z,10.15
2023-05-21T19:52:41.551Z,7.82
2023-05-21T19:55:10.173Z,14.40
2023-05-21T19:57:37.231Z,17.08
2023-05-21T20:00:05.332Z,7.40
2023-05-21T20:02:32.027Z,10.40
2023-05-21T20:04:59.185Z,6.32
2023-05-21T20:07:25.896Z,6.55
2023-05-21T20:09:52.443Z,12.75
2023-05-21T20:12:19.253Z,7.70
2023-05-21T20:14:47.435Z,10.73
2023-05-21T20:17:14.712Z,13.63
2023-05-21T20:19:41.370Z,11.07
2023-05-21T20:22:07.951Z,9.00
2023-05-21T20:24:34.493Z,11.93
2023-05-21T20:27:01.772Z,7.03
2023-05-21T20:29:28.839Z,5.88
2023-05-21T20:31:55.463Z,13.90
2023-05-21T20:34:22.169Z,8.18
2023-05-21T20:36:48.666Z,11.25
2023-05-21T20:39:15.615Z,7.13
2023-05-21T20:41:44.745Z,9.43
2023-05-21T20:44:11.912Z,18.42
2023-05-21T20:46:38.975Z,7.10
2023-05-21T20:49:06.048Z,8.52
2023-05-21T20:51:33.071Z,9.82
2023-05-21T20:53:59.633Z,8.00
2023-05-21T20:56:40.790Z,7.40
2023-05-21T20:59:10.894Z,8.05
2023-05-21T21:01:38.582Z,11.70
2023-05-21T21:04:05.368Z,9.30
2023-05-21T21:06:32.055Z,6.13
2023-05-21T21:08:58.744Z,10.38
2023-05-21T21:11:26.616Z,7.57
2023-05-21T21:13:53.175Z,9.40
2023-05-21T21:16:19.736Z,7.72
2023-05-21T21:18:47.009Z,9.48
2023-05-21T21:21:13.810Z,8.40
2023-05-21T21:23:40.535Z,14.52
2023-05-21T21:26:07.187Z,10.95
2023-05-21T21:28:33.937Z,8.35
2023-05-21T21:31:00.615Z,5.38
2023-05-21T21:33:28.408Z,7.85
2023-05-21T21:35:55.203Z,10.73
2023-05-21T21:38:21.839Z,9.23
2023-05-21T21:40:48.417Z,11.73
2023-05-21T21:43:14.951Z,8.00
2023-05-21T21:45:41.610Z,8.15
2023-05-21T21:48:08.216Z,9.93
2023-05-21T21:50:34.792Z,6.85
2023-05-21T21:53:03.553Z,8.45
2023-05-21T21:55:30.326Z,8.65
2023-05-21T21:57:56.909Z,6.50
2023-05-21T22:00:26.683Z,9.18
2023-05-21T22:05:20.276Z,10.23
2023-05-21T22:07:46.950Z,9.75
2023-05-21T22:10:15.302Z,10.70
2023-05-21T22:12:42.441Z,7.82
2023-05-21T22:15:18.165Z,6.68
2023-05-21T22:17:45.053Z,7.63
2023-05-21T22:20:11.626Z,9.50
2023-05-21T22:22:38.134Z,13.68
2023-05-21T22:25:04.987Z,8.85
2023-05-21T22:27:31.426Z,8.63
2023-05-21T22:29:57.973Z,9.30
2023-05-21T22:32:24.489Z,9.30
2023-05-21T22:34:50.986Z,5.80
2023-05-21T22:37:17.877Z,13.02
2023-05-21T22:39:44.766Z,6.40
2023-05-21T22:42:11.405Z,11.65
2023-05-21T22:44:38.008Z,8.00
2023-05-21T22:47:04.809Z,9.32
2023-05-21T22:49:32.673Z,11.68
2023-05-21T22:52:05.624Z,13.82
2023-05-21T22:54:32.772Z,6.63
2023-05-21T22:57:01.067Z,8.05
2023-05-21T22:59:32.162Z,8.55
2023-05-21T23:01:59.306Z,6.63
2023-05-21T23:04:42.819Z,10.13
2023-05-21T23:07:10.766Z,6.07
2023-05-21T23:09:37.238Z,8.55
2023-05-21T23:12:04.195Z,8.95
2023-05-21T23:14:30.822Z,8.02
2023-05-21T23:17:01.656Z,13.52
2023-05-21T23:19:29.238Z,9.90
2023-05-21T23:21:56.169Z,8.63
2023-05-21T23:24:22.814Z,6.45
2023-05-21T23:26:49.465Z,7.32
2023-05-21T23:29:16.017Z,6.88
2023-05-21T23:31:42.768Z,4.95
2023-05-21T23:34:09.582Z,19.08
2023-05-21T23:36:36.182Z,13.13
2023-05-21T23:39:02.798Z,11.77
2023-05-21T23:41:29.532Z,10.68
2023-05-21T23:43:56.008Z,8.27
2023-05-21T23:46:23.047Z,8.95
2023-05-21T23:48:49.865Z,11.73
2023-05-21T23:51:18.286Z,13.63
2023-05-21T23:53:45.393Z,9.85
2023-05-21T23:56:11.917Z,6.22
2023-05-21T23:58:38.387Z,7.38
